Time;durP1;ratioP1;P1;durP2;ratioP2;P2;SDS_P1;SDS_P2;PMS_P1;PMS_P2;Temp;Humidity;BMP_temperature;BMP_pressure;BME280_temperature;BME280_humidity;BME280_pressure;Samples;Min_cycle;Max_cycle;Signal;HPM_P1;HPM_P2
2022/05/05 00:01:43;;;;;;;21.40;12.97;;;13.00;99.90;;;;;;4189211;28;20214;-80
2022/05/05 00:03:46;;;;;;;26.37;12.77;;;13.00;99.90;;;;;;4192100;28;20236;-80
2022/05/05 00:05:48;;;;;;;19.27;12.10;;;13.00;99.90;;;;;;4199519;28;20253;-81
2022/05/05 00:07:49;;;;;;;21.10;12.47;;;13.00;99.90;;;;;;4190306;28;20217;-80
2022/05/05 00:09:51;;;;;;;21.80;12.53;;;13.00;99.90;;;;;;4185190;28;20852;-81
2022/05/05 00:14:23;;;;;;;23.77;13.07;;;13.00;99.90;;;;;;4195750;28;20274;-81
2022/05/05 00:16:27;;;;;;;23.23;12.67;;;13.00;99.90;;;;;;4194986;28;20208;-81
2022/05/05 00:18:28;;;;;;;23.37;12.63;;;13.00;99.90;;;;;;4191175;28;20708;-80
2022/05/05 00:20:31;;;;;;;19.37;12.30;;;13.00;99.90;;;;;;4193465;28;20213;-81
2022/05/05 00:22:33;;;;;;;20.07;13.13;;;12.90;99.90;;;;;;4188493;28;20213;-81
2022/05/05 00:24:36;;;;;;;17.67;12.20;;;13.00;99.90;;;;;;4183629;28;20306;-81
2022/05/05 00:26:38;;;;;;;23.93;12.33;;;13.00;99.90;;;;;;4181587;28;20230;-80
2022/05/05 00:28:40;;;;;;;23.87;12.70;;;12.90;99.90;;;;;;4193280;28;20679;-81
2022/05/05 00:30:42;;;;;;;24.57;12.90;;;12.90;99.90;;;;;;4187856;28;20513;-81
2022/05/05 00:32:43;;;;;;;20.83;13.47;;;12.90;99.90;;;;;;4190414;28;20217;-79
2022/05/05 00:34:45;;;;;;;23.60;12.83;;;12.90;99.90;;;;;;4197285;28;20245;-80
2022/05/05 00:36:51;;;;;;;20.73;13.60;;;12.90;99.90;;;;;;4193800;28;20235;-81
2022/05/05 00:38:53;;;;;;;26.60;13.43;;;12.90;99.90;;;;;;4196768;28;20244;-79
2022/05/05 00:40:54;;;;;;;22.60;14.53;;;13.20;99.90;;;;;;4189865;28;20244;-81
2022/05/05 00:42:56;;;;;;;22.57;12.83;;;12.90;99.90;;;;;;4192040;28;20272;-79
2022/05/05 00:44:59;;;;;;;22.70;13.30;;;12.90;99.90;;;;;;4194017;28;20605;-80
2022/05/05 00:47:01;;;;;;;22.93;12.97;;;12.80;99.90;;;;;;4193027;28;20263;-80
2022/05/05 00:49:04;;;;;;;21.97;13.23;;;12.80;99.90;;;;;;4191032;28;20214;-81
2022/05/05 00:51:06;;;;;;;22.53;13.00;;;12.80;99.90;;;;;;4193751;28;20220;-80
2022/05/05 00:53:09;;;;;;;24.27;13.23;;;12.80;99.90;;;;;;4193267;28;20228;-80
2022/05/05 00:55:11;;;;;;;22.03;13.77;;;12.80;99.90;;;;;;4196380;28;20241;-80
2022/05/05 00:57:15;;;;;;;25.60;13.50;;;12.80;99.90;;;;;;4198880;28;20225;-80
2022/05/05 00:59:17;;;;;;;21.47;13.93;;;12.80;99.90;;;;;;4189974;28;20218;-80
2022/05/05 01:01:21;;;;;;;24.87;14.00;;;12.80;99.90;;;;;;4189807;28;20282;-79
2022/05/05 01:03:24;;;;;;;23.67;14.47;;;12.70;99.90;;;;;;4193018;28;20220;-80
2022/05/05 01:05:26;;;;;;;24.97;14.10;;;12.70;99.90;;;;;;4194181;28;20284;-80
2022/05/05 01:07:28;;;;;;;22.67;13.67;;;12.70;99.90;;;;;;4184490;28;20221;-81
2022/05/05 01:10:19;;;;;;;25.37;15.00;;;12.70;99.90;;;;;;4188939;28;20231;-80
2022/05/05 01:12:23;;;;;;;26.53;14.13;;;12.70;99.90;;;;;;4185956;28;20656;-81
2022/05/05 01:14:25;;;;;;;24.43;14.53;;;12.70;99.90;;;;;;4189991;28;20718;-82
2022/05/05 01:16:27;;;;;;;26.17;15.17;;;12.70;99.90;;;;;;4200339;28;20205;-82
2022/05/05 01:18:29;;;;;;;26.60;14.80;;;12.70;99.90;;;;;;4191250;28;20222;-82
2022/05/05 01:20:31;;;;;;;24.53;14.60;;;12.60;99.90;;;;;;4190976;28;20634;-82
2022/05/05 01:22:34;;;;;;;23.53;14.30;;;12.60;99.90;;;;;;4194519;28;20213;-82
2022/05/05 01:29:17;;;;;;;28.43;16.10;;;12.60;99.90;;;;;;4189269;28;20220;-83
2022/05/05 01:31:19;;;;;;;26.10;15.87;;;12.60;99.90;;;;;;4182373;28;20239;-82
2022/05/05 01:33:23;;;;;;;25.20;15.43;;;12.60;99.90;;;;;;4194409;28;20263;-81
2022/05/05 01:35:24;;;;;;;22.97;14.80;;;12.60;99.90;;;;;;4188538;28;20666;-82
2022/05/05 01:37:26;;;;;;;25.87;15.17;;;12.60;99.90;;;;;;4183319;28;20224;-82
2022/05/05 01:39:29;;;;;;;25.50;15.63;;;12.60;99.90;;;;;;4194362;28;20208;-82
2022/05/05 01:41:31;;;;;;;23.57;14.80;;;12.60;99.90;;;;;;4193343;28;20216;-81
2022/05/05 01:43:33;;;;;;;28.17;16.20;;;12.60;99.90;;;;;;4190479;28;20220;-81
2022/05/05 01:45:36;;;;;;;30.03;16.43;;;12.50;99.90;;;;;;4193494;28;20249;-81
2022/05/05 01:47:37;;;;;;;30.53;16.40;;;12.50;99.90;;;;;;4184737;28;20218;-81
2022/05/05 01:49:39;;;;;;;29.23;15.60;;;12.50;99.90;;;;;;4198154;28;20220;-81
2022/05/05 01:51:41;;;;;;;25.93;15.73;;;12.60;99.90;;;;;;4195217;28;20211;-81
2022/05/05 01:53:43;;;;;;;25.03;16.60;;;12.50;99.90;;;;;;4195973;28;20750;-80
2022/05/05 01:55:46;;;;;;;29.07;16.33;;;12.50;99.90;;;;;;4189585;28;20263;-80
2022/05/05 01:57:48;;;;;;;28.87;16.53;;;12.50;99.90;;;;;;4192222;28;20224;-82
2022/05/05 01:59:49;;;;;;;23.47;15.10;;;12.50;99.90;;;;;;4197385;28;20584;-81
2022/05/05 02:01:51;;;;;;;26.87;15.70;;;12.50;99.90;;;;;;4199406;28;20205;-79
2022/05/05 02:03:53;;;;;;;26.67;16.13;;;12.40;99.90;;;;;;4206030;28;20289;-80
2022/05/05 02:05:54;;;;;;;27.47;15.73;;;12.40;99.90;;;;;;4203534;28;20213;-81
2022/05/05 02:07:56;;;;;;;26.07;16.47;;;12.50;99.90;;;;;;4208811;28;20209;-79
2022/05/05 02:10:01;;;;;;;27.03;15.93;;;12.50;99.90;;;;;;4204094;28;20216;-81
2022/05/05 02:12:05;;;;;;;28.33;16.00;;;12.40;99.90;;;;;;4199572;28;20214;-80
2022/05/05 02:14:07;;;;;;;29.50;17.40;;;12.40;99.90;;;;;;4204201;28;20233;-80
2022/05/05 02:16:09;;;;;;;31.53;16.80;;;12.40;99.90;;;;;;4209342;28;20666;-80
2022/05/05 02:18:12;;;;;;;31.80;17.07;;;12.40;99.90;;;;;;4199058;28;20213;-81
2022/05/05 02:20:14;;;;;;;32.17;17.80;;;12.40;99.90;;;;;;4198775;28;20272;-79
2022/05/05 02:22:16;;;;;;;28.37;17.50;;;12.30;99.90;;;;;;4202506;28;20212;-79
2022/05/05 02:24:17;;;;;;;31.93;18.07;;;12.40;99.90;;;;;;4211188;28;20243;-80
2022/05/05 02:26:19;;;;;;;29.03;17.37;;;12.30;99.90;;;;;;4210735;28;20240;-81
2022/05/05 02:28:22;;;;;;;35.33;17.80;;;12.90;99.90;;;;;;4210431;28;20215;-81
2022/05/05 02:30:25;;;;;;;31.77;17.97;;;12.30;99.90;;;;;;4206757;28;20197;-80
2022/05/05 02:32:28;;;;;;;31.93;19.10;;;12.30;99.90;;;;;;4201939;28;20199;-81
2022/05/05 02:34:29;;;;;;;35.23;18.97;;;12.30;99.90;;;;;;4204848;28;20248;-81
2022/05/05 02:38:50;;;;;;;28.67;17.93;;;12.90;99.90;;;;;;4194456;28;20261;-80
2022/05/05 02:40:52;;;;;;;29.90;17.37;;;12.20;99.90;;;;;;4190796;28;20210;-80
2022/05/05 02:42:55;;;;;;;31.03;17.63;;;12.20;99.90;;;;;;4185590;28;20227;-80
2022/05/05 02:44:58;;;;;;;39.93;18.23;;;12.20;99.90;;;;;;4191771;28;20240;-82
2022/05/05 02:47:00;;;;;;;26.80;17.53;;;12.20;99.90;;;;;;4195865;28;20292;-80
2022/05/05 02:49:02;;;;;;;29.20;17.90;;;12.20;99.90;;;;;;4185108;28;20218;-81
2022/05/05 02:51:04;;;;;;;33.50;18.23;;;12.20;99.90;;;;;;4197711;28;20229;-81
2022/05/05 02:54:47;;;;;;;33.20;18.47;;;12.20;99.90;;;;;;4184674;28;20275;-81
2022/05/05 02:55:27;;;;;;;33.27;18.47;;;12.20;99.90;;;;;;4192197;28;20215;-81
2022/05/05 02:57:28;;;;;;;32.00;18.40;;;12.20;99.90;;;;;;4200121;28;20211;-79
2022/05/05 02:59:30;;;;;;;29.60;18.60;;;12.20;99.90;;;;;;4188096;28;20731;-80
2022/05/05 03:01:34;;;;;;;32.80;18.00;;;12.20;99.90;;;;;;4198188;28;20658;-80
2022/05/05 03:03:36;;;;;;;29.13;16.87;;;12.10;99.90;;;;;;4197502;28;20220;-80
2022/05/05 03:05:38;;;;;;;29.70;18.27;;;12.10;99.90;;;;;;4194861;28;20558;-81
2022/05/05 03:07:41;;;;;;;34.40;18.77;;;12.10;99.90;;;;;;4190989;28;20634;-81
2022/05/05 03:09:43;;;;;;;31.90;19.73;;;12.10;99.90;;;;;;4199004;28;20210;-80
2022/05/05 03:11:45;;;;;;;33.20;18.87;;;12.10;99.90;;;;;;4200652;28;20212;-80
2022/05/05 03:13:46;;;;;;;30.40;19.03;;;12.10;99.90;;;;;;4188118;28;20232;-80
2022/05/05 03:15:48;;;;;;;31.33;18.50;;;12.10;99.90;;;;;;4196509;28;20211;-80
2022/05/05 03:17:51;;;;;;;31.60;19.97;;;12.10;99.90;;;;;;4199608;28;20220;-80
2022/05/05 03:19:53;;;;;;;32.33;18.93;;;12.10;99.90;;;;;;4198510;28;20223;-78
2022/05/05 03:21:55;;;;;;;33.93;18.53;;;12.40;99.90;;;;;;4192973;28;20531;-81
2022/05/05 03:23:56;;;;;;;31.57;19.53;;;12.30;99.90;;;;;;4197778;28;20235;-81
2022/05/05 03:25:58;;;;;;;36.90;20.13;;;12.10;99.90;;;;;;4201978;28;20718;-80
2022/05/05 03:28:00;;;;;;;33.47;18.80;;;12.10;99.90;;;;;;4197786;28;20251;-80
2022/05/05 03:30:02;;;;;;;32.33;19.67;;;12.00;99.90;;;;;;4205080;28;20626;-80
2022/05/05 03:32:04;;;;;;;29.93;18.37;;;12.00;99.90;;;;;;4192652;28;20223;-80
2022/05/05 03:34:07;;;;;;;32.37;18.27;;;12.00;99.90;;;;;;4205086;28;20243;-80
2022/05/05 03:36:09;;;;;;;35.77;20.53;;;12.30;99.90;;;;;;4195115;28;20211;-80
2022/05/05 03:38:11;;;;;;;33.90;19.93;;;12.00;99.90;;;;;;4196603;28;20247;-81
2022/05/05 03:40:13;;;;;;;31.07;17.87;;;12.00;99.90;;;;;;4193773;28;20259;-80
2022/05/05 03:42:15;;;;;;;35.03;19.53;;;12.00;99.90;;;;;;4196643;28;20602;-81
2022/05/05 03:44:16;;;;;;;35.87;20.80;;;12.00;99.90;;;;;;4212219;28;20318;-80
2022/05/05 03:46:18;;;;;;;30.53;18.90;;;12.00;99.90;;;;;;4206012;28;20249;-80
2022/05/05 03:48:20;;;;;;;31.70;17.63;;;12.00;99.90;;;;;;4203353;28;20217;-80
2022/05/05 03:50:23;;;;;;;31.27;18.87;;;12.00;99.90;;;;;;4205826;28;20267;-80
2022/05/05 03:52:25;;;;;;;32.17;18.60;;;12.00;99.90;;;;;;4191884;28;20216;-81
2022/05/05 03:54:27;;;;;;;30.30;18.33;;;12.10;99.90;;;;;;4192793;28;20271;-80
2022/05/05 03:56:29;;;;;;;31.20;18.73;;;12.10;99.90;;;;;;4197742;28;20238;-79
2022/05/05 03:58:30;;;;;;;31.90;18.93;;;12.00;99.90;;;;;;4196592;28;20226;-81
2022/05/05 04:00:32;;;;;;;33.33;19.37;;;12.10;99.90;;;;;;4202705;28;20272;-79
2022/05/05 04:02:34;;;;;;;33.50;19.83;;;12.10;99.90;;;;;;4200819;28;20213;-81
2022/05/05 04:04:35;;;;;;;40.97;20.57;;;12.10;99.90;;;;;;4196824;28;20282;-80
2022/05/05 04:06:38;;;;;;;35.50;19.37;;;12.10;99.90;;;;;;4199292;28;20232;-81
2022/05/05 04:08:40;;;;;;;31.87;18.17;;;12.10;99.90;;;;;;4192162;28;20710;-80
2022/05/05 04:10:42;;;;;;;35.33;18.43;;;12.10;99.90;;;;;;4203474;28;20209;-81
2022/05/05 04:12:44;;;;;;;31.20;17.77;;;12.10;99.90;;;;;;4195793;28;20280;-80
2022/05/05 04:14:45;;;;;;;29.43;18.47;;;12.10;99.90;;;;;;4201104;28;20263;-80
2022/05/05 04:16:47;;;;;;;30.77;17.63;;;12.10;99.90;;;;;;4196739;28;20212;-78
2022/05/05 04:18:49;;;;;;;27.60;17.47;;;12.10;99.90;;;;;;4201017;28;20273;-80
2022/05/05 04:20:51;;;;;;;31.03;18.00;;;12.10;99.90;;;;;;4203070;28;20250;-79
2022/05/05 04:22:54;;;;;;;30.60;17.47;;;12.10;99.90;;;;;;4193688;28;20214;-79
2022/05/05 04:24:56;;;;;;;32.07;17.73;;;12.10;99.90;;;;;;4193493;28;20292;-80
2022/05/05 04:26:57;;;;;;;29.20;17.03;;;12.10;99.90;;;;;;4204246;28;20231;-80
2022/05/05 04:28:59;;;;;;;27.10;16.87;;;12.10;99.90;;;;;;4194567;28;20212;-80
2022/05/05 04:31:01;;;;;;;29.07;16.33;;;12.10;99.90;;;;;;4193582;28;20205;-80
2022/05/05 04:33:04;;;;;;;31.27;17.30;;;12.50;99.90;;;;;;4184775;28;20273;-80
2022/05/05 04:35:08;;;;;;;30.03;16.73;;;12.10;99.90;;;;;;4198537;28;20708;-80
2022/05/05 04:37:10;;;;;;;31.97;18.33;;;12.10;99.90;;;;;;4196539;28;20269;-81
2022/05/05 04:39:13;;;;;;;34.77;19.37;;;12.10;99.90;;;;;;4197097;28;20291;-81
2022/05/05 04:41:15;;;;;;;40.00;20.10;;;12.10;99.90;;;;;;4188601;28;20220;-78
2022/05/05 04:43:17;;;;;;;34.87;18.70;;;12.10;99.90;;;;;;4203902;28;20212;-81
2022/05/05 04:45:19;;;;;;;37.87;18.40;;;12.10;99.90;;;;;;4198145;28;20229;-82
2022/05/05 04:47:20;;;;;;;33.50;17.60;;;12.10;99.90;;;;;;4197708;28;20230;-83
2022/05/05 04:49:22;;;;;;;28.10;17.30;;;12.10;99.90;;;;;;4196203;28;20220;-79
2022/05/05 04:51:24;;;;;;;30.43;16.80;;;12.10;99.90;;;;;;4190346;28;20224;-80
2022/05/05 04:53:25;;;;;;;28.23;16.57;;;12.10;99.90;;;;;;4195305;28;20392;-84
2022/05/05 04:55:29;;;;;;;28.77;16.03;;;12.10;99.90;;;;;;4194908;28;20220;-82
2022/05/05 04:57:30;;;;;;;26.17;15.50;;;12.10;99.90;;;;;;4188628;28;20241;-80
2022/05/05 04:59:32;;;;;;;27.30;14.77;;;12.10;99.90;;;;;;4189250;28;20206;-80
2022/05/05 05:01:34;;;;;;;29.87;15.70;;;12.10;99.90;;;;;;4189626;28;20659;-81
2022/05/05 05:03:39;;;;;;;29.63;15.33;;;12.10;99.90;;;;;;4187716;28;20217;-82
2022/05/05 05:05:41;;;;;;;23.90;14.93;;;12.00;99.90;;;;;;4195535;28;20582;-80
2022/05/05 05:07:42;;;;;;;25.23;15.20;;;12.00;99.90;;;;;;4197983;28;20223;-82
2022/05/05 05:09:44;;;;;;;32.83;16.63;;;12.10;99.90;;;;;;4194898;28;20221;-80
2022/05/05 05:11:47;;;;;;;26.30;14.83;;;12.00;99.90;;;;;;4199139;28;20737;-82
2022/05/05 05:13:49;;;;;;;29.00;14.80;;;12.00;99.90;;;;;;4197558;28;20288;-82
2022/05/05 05:15:51;;;;;;;27.63;14.57;;;11.90;99.90;;;;;;4194824;28;20289;-82
2022/05/05 05:17:52;;;;;;;24.60;15.53;;;12.00;99.90;;;;;;4196005;28;20212;-81
2022/05/05 05:19:54;;;;;;;24.97;14.97;;;12.00;99.90;;;;;;4190992;28;20261;-82
2022/05/05 05:21:56;;;;;;;28.93;16.27;;;12.70;99.90;;;;;;4196590;28;21566;-81
2022/05/05 05:23:59;;;;;;;30.20;16.40;;;12.00;99.90;;;;;;4194031;28;20290;-82
2022/05/05 05:26:01;;;;;;;27.27;15.43;;;12.00;99.90;;;;;;4192701;28;20250;-81
2022/05/05 05:28:04;;;;;;;24.67;14.97;;;12.00;99.90;;;;;;4196610;28;20228;-82
2022/05/05 05:30:07;;;;;;;27.30;15.40;;;12.00;99.90;;;;;;4197092;28;20264;-82
2022/05/05 05:32:09;;;;;;;30.87;16.27;;;12.00;99.90;;;;;;4193080;28;20256;-82
2022/05/05 05:34:11;;;;;;;30.90;15.67;;;12.00;99.90;;;;;;4195012;28;20245;-82
2022/05/05 05:36:13;;;;;;;26.83;14.73;;;12.00;99.90;;;;;;4195157;28;20206;-82
2022/05/05 05:38:15;;;;;;;25.43;14.97;;;12.00;99.90;;;;;;4194397;28;20211;-82
2022/05/05 05:40:16;;;;;;;24.67;14.83;;;12.00;99.90;;;;;;4189598;28;20650;-83
2022/05/05 05:42:18;;;;;;;33.67;16.50;;;12.00;99.90;;;;;;4189864;28;20215;-83
2022/05/05 05:44:21;;;;;;;24.17;14.40;;;12.20;99.90;;;;;;4187139;28;20326;-83
2022/05/05 05:46:23;;;;;;;28.10;14.77;;;12.10;99.90;;;;;;4187855;28;20340;-82
2022/05/05 05:48:24;;;;;;;27.47;15.03;;;12.10;99.90;;;;;;4189047;28;20758;-82
2022/05/05 05:50:28;;;;;;;26.83;14.83;;;12.20;99.90;;;;;;4190530;28;20606;-82
2022/05/05 05:52:30;;;;;;;23.97;14.93;;;12.30;99.90;;;;;;4187190;28;20223;-82
2022/05/05 05:54:32;;;;;;;28.00;14.53;;;12.30;99.90;;;;;;4192392;28;20711;-83
2022/05/05 05:56:34;;;;;;;23.20;14.60;;;12.40;99.90;;;;;;4187072;28;20265;-83
2022/05/05 05:58:37;;;;;;;20.80;12.87;;;13.10;99.90;;;;;;4190070;28;20212;-82
2022/05/05 06:00:41;;;;;;;23.30;13.40;;;12.50;99.90;;;;;;4196579;28;20205;-82
2022/05/05 06:05:05;;;;;;;23.93;13.53;;;12.60;99.90;;;;;;4179308;28;20366;-83
2022/05/05 06:07:06;;;;;;;21.50;14.20;;;12.70;99.90;;;;;;4197008;28;20240;-83
2022/05/05 06:09:08;;;;;;;19.77;12.87;;;12.80;99.90;;;;;;4196036;28;20209;-82
2022/05/05 06:11:11;;;;;;;21.03;12.50;;;12.80;99.90;;;;;;4193531;28;20572;-82
2022/05/05 06:13:12;;;;;;;24.23;12.30;;;12.80;99.90;;;;;;4189270;28;20224;-82
2022/05/05 06:15:14;;;;;;;19.27;11.93;;;12.90;99.90;;;;;;4189093;28;20237;-83
2022/05/05 06:17:18;;;;;;;20.87;12.00;;;12.90;99.90;;;;;;4197315;28;20231;-81
2022/05/05 06:19:19;;;;;;;19.17;11.70;;;12.90;99.90;;;;;;4196952;28;20216;-82
2022/05/05 06:21:21;;;;;;;22.47;11.70;;;13.00;99.90;;;;;;4196264;28;20209;-81
2022/05/05 06:23:23;;;;;;;17.90;10.97;;;13.00;99.90;;;;;;4194921;28;20270;-81
2022/05/05 06:25:25;;;;;;;24.03;13.33;;;13.00;99.90;;;;;;4189365;28;20902;-81
2022/05/05 06:27:27;;;;;;;26.47;13.00;;;12.80;99.90;;;;;;4183848;28;20225;-81
2022/05/05 06:29:30;;;;;;;19.07;11.40;;;13.00;99.90;;;;;;4191607;28;20686;-81
2022/05/05 06:31:32;;;;;;;17.47;10.80;;;13.10;99.90;;;;;;4198157;28;20216;-81
2022/05/05 06:33:35;;;;;;;18.40;11.53;;;13.10;99.90;;;;;;4186510;28;20210;-82
2022/05/05 06:35:37;;;;;;;21.00;11.67;;;13.10;99.90;;;;;;4192463;28;20210;-81
2022/05/05 06:37:39;;;;;;;21.23;10.97;;;13.10;99.90;;;;;;4190239;28;20214;-81
2022/05/05 06:39:40;;;;;;;20.97;11.50;;;13.10;99.90;;;;;;4198094;28;20217;-81
2022/05/05 06:41:42;;;;;;;16.47;10.30;;;13.20;99.90;;;;;;4194182;28;20720;-81
2022/05/05 06:43:44;;;;;;;19.87;10.57;;;13.20;99.90;;;;;;4198598;28;20240;-81
2022/05/05 06:45:46;;;;;;;21.03;10.90;;;13.20;99.90;;;;;;4187861;28;20241;-81
2022/05/05 06:47:48;;;;;;;18.47;10.47;;;13.30;99.90;;;;;;4193325;28;20293;-81
2022/05/05 06:49:51;;;;;;;19.63;9.83;;;13.40;99.90;;;;;;4190813;28;20209;-82
2022/05/05 06:51:53;;;;;;;17.90;10.57;;;13.50;99.90;;;;;;4198000;28;20202;-81
2022/05/05 06:53:54;;;;;;;18.53;10.53;;;13.70;99.90;;;;;;4182300;28;20781;-82
2022/05/05 06:55:58;;;;;;;16.93;9.60;;;13.60;99.90;;;;;;4181955;28;20228;-81
2022/05/05 06:58:00;;;;;;;18.77;9.40;;;13.70;99.90;;;;;;4186213;28;20225;-82
2022/05/05 07:00:02;;;;;;;16.83;9.73;;;13.80;99.90;;;;;;4194592;28;20216;-81
2022/05/05 07:02:04;;;;;;;11.53;8.50;;;13.80;99.90;;;;;;4183220;28;20691;-81
2022/05/05 07:06:26;;;;;;;17.73;9.77;;;14.00;99.90;;;;;;4187083;28;20213;-82
2022/05/05 07:10:52;;;;;;;17.67;9.37;;;14.00;99.90;;;;;;4191835;28;20260;-82
2022/05/05 07:10:55;;;;;;;17.37;9.40;;;14.10;99.90;;;;;;4193560;28;20210;-81
2022/05/05 07:12:56;;;;;;;14.83;8.90;;;14.10;99.90;;;;;;4199443;28;20205;-82
2022/05/05 07:14:59;;;;;;;16.03;8.83;;;14.20;99.90;;;;;;4190870;28;20234;-82
2022/05/05 07:17:00;;;;;;;14.07;8.37;;;14.30;99.90;;;;;;4188744;28;20220;-80
2022/05/05 07:19:04;;;;;;;16.43;9.93;;;14.40;99.90;;;;;;4195254;28;20659;-81
2022/05/05 07:21:06;;;;;;;15.00;9.10;;;14.50;99.90;;;;;;4200626;28;20214;-80
2022/05/05 07:23:12;;;;;;;15.10;9.00;;;14.50;99.90;;;;;;4202249;28;20218;-81
2022/05/05 07:25:14;;;;;;;15.17;9.43;;;14.60;99.90;;;;;;4202242;28;20235;-82
2022/05/05 07:27:16;;;;;;;19.17;9.63;;;14.70;99.90;;;;;;4204143;28;20221;-82
2022/05/05 07:29:17;;;;;;;17.07;9.40;;;14.80;99.90;;;;;;4204748;28;20213;-82
2022/05/05 07:31:19;;;;;;;14.47;8.70;;;14.80;99.90;;;;;;4200372;28;20211;-82
2022/05/05 07:33:22;;;;;;;17.07;7.90;;;14.80;99.90;;;;;;4194526;28;20231;-82
2022/05/05 07:35:23;;;;;;;14.33;7.90;;;15.00;99.90;;;;;;4187543;28;20210;-82
2022/05/05 07:37:25;;;;;;;14.80;7.70;;;15.00;99.90;;;;;;4185375;28;20246;-82
2022/05/05 07:39:28;;;;;;;16.70;8.10;;;15.00;99.90;;;;;;4188771;28;20219;-82
2022/05/05 07:41:30;;;;;;;14.97;7.80;;;15.10;99.90;;;;;;4186276;28;20241;-81
2022/05/05 07:43:32;;;;;;;15.93;8.93;;;15.20;99.90;;;;;;4195174;28;20577;-82
2022/05/05 07:45:34;;;;;;;19.77;10.33;;;15.30;99.90;;;;;;4197175;28;20269;-82
2022/05/05 07:47:36;;;;;;;22.03;10.70;;;15.50;99.90;;;;;;4187140;28;20235;-82
2022/05/05 07:49:38;;;;;;;16.07;9.53;;;15.60;99.90;;;;;;4192557;28;20214;-82
2022/05/05 07:51:40;;;;;;;16.00;9.13;;;15.60;99.90;;;;;;4184526;28;20204;-82
2022/05/05 07:53:41;;;;;;;16.03;9.23;;;15.80;99.90;;;;;;4184505;28;20678;-82
2022/05/05 07:55:44;;;;;;;16.83;9.10;;;15.60;99.90;;;;;;4203869;28;20216;-81
2022/05/05 07:57:47;;;;;;;19.87;9.00;;;15.70;99.90;;;;;;4196493;28;20708;-82
2022/05/05 07:59:49;;;;;;;14.07;8.60;;;15.70;99.90;;;;;;4189276;28;20212;-82
2022/05/05 08:01:51;;;;;;;15.57;8.83;;;15.80;99.90;;;;;;4192704;28;20214;-82
2022/05/05 08:03:55;;;;;;;20.30;9.50;;;16.00;99.90;;;;;;4193769;28;20239;-82
2022/05/05 08:05:56;;;;;;;18.87;10.80;;;15.90;99.90;;;;;;4201032;28;20964;-82
2022/05/05 08:07:58;;;;;;;27.70;11.90;;;15.90;99.90;;;;;;4195431;28;20237;-82
2022/05/05 08:10:00;;;;;;;24.03;12.10;;;15.80;99.90;;;;;;4195905;28;20214;-82
2022/05/05 08:12:04;;;;;;;21.47;11.83;;;15.70;99.90;;;;;;4188278;28;20223;-82
2022/05/05 08:14:08;;;;;;;19.63;10.90;;;15.70;99.90;;;;;;4185299;28;20235;-82
2022/05/05 08:16:10;;;;;;;17.80;11.40;;;15.70;99.90;;;;;;4198132;28;20212;-82
2022/05/05 08:18:11;;;;;;;19.50;11.00;;;15.80;99.90;;;;;;4193297;28;20215;-82
2022/05/05 08:20:14;;;;;;;23.40;11.07;;;15.80;99.90;;;;;;4190747;28;20256;-82
2022/05/05 08:22:16;;;;;;;18.80;10.47;;;15.80;99.90;;;;;;4195471;28;20209;-82
2022/05/05 08:29:12;;;;;;;16.93;10.07;;;15.90;99.90;;;;;;4164265;28;20332;-82
2022/05/05 08:31:14;;;;;;;16.57;10.00;;;15.90;99.90;;;;;;4160523;28;20243;-82
2022/05/05 08:33:16;;;;;;;15.80;10.33;;;15.80;99.90;;;;;;4201190;28;20291;-82
2022/05/05 08:35:18;;;;;;;19.33;10.40;;;15.80;99.90;;;;;;4202248;28;20311;-82
2022/05/05 08:37:19;;;;;;;19.57;10.30;;;15.70;99.90;;;;;;4195256;28;20216;-82
2022/05/05 08:39:21;;;;;;;17.67;10.43;;;15.70;99.90;;;;;;4196303;28;20209;-82
2022/05/05 08:41:23;;;;;;;15.80;10.43;;;15.50;99.90;;;;;;4198772;28;20219;-82
2022/05/05 08:43:25;;;;;;;16.70;10.50;;;15.60;99.90;;;;;;4188466;28;20262;-82
2022/05/05 08:45:31;;;;;;;15.37;10.20;;;15.60;99.90;;;;;;4188182;28;20225;-82
2022/05/05 08:47:34;;;;;;;20.23;10.93;;;15.70;99.90;;;;;;4197997;28;20217;-82
2022/05/05 08:49:36;;;;;;;17.47;10.33;;;15.70;99.90;;;;;;4192434;28;20700;-82
2022/05/05 08:51:43;;;;;;;18.90;10.50;;;15.50;99.90;;;;;;4187651;28;20291;-82
2022/05/05 08:53:53;;;;;;;17.80;10.47;;;15.70;99.90;;;;;;4199423;28;20249;-82
2022/05/05 08:55:55;;;;;;;16.30;9.67;;;15.80;99.90;;;;;;4200108;28;20209;-82
2022/05/05 08:57:57;;;;;;;18.47;9.40;;;15.80;99.90;;;;;;4194410;28;20224;-82
2022/05/05 08:59:59;;;;;;;17.03;9.53;;;15.90;99.90;;;;;;4181660;28;20212;-82
2022/05/05 09:02:02;;;;;;;16.23;9.20;;;16.00;99.90;;;;;;4188875;28;20247;-82
2022/05/05 09:04:04;;;;;;;16.40;9.23;;;16.00;99.90;;;;;;4194546;28;20239;-82
2022/05/05 09:06:06;;;;;;;12.97;8.67;;;16.10;99.90;;;;;;4198644;28;20207;-82
2022/05/05 09:08:08;;;;;;;15.63;8.27;;;16.20;99.90;;;;;;4191978;28;20746;-82
2022/05/05 09:10:10;;;;;;;17.07;8.77;;;16.30;99.90;;;;;;4185578;28;20213;-82
2022/05/05 09:12:14;;;;;;;12.67;8.57;;;16.40;99.90;;;;;;4193681;28;20537;-82
2022/05/05 09:14:19;;;;;;;14.77;9.13;;;16.40;99.90;;;;;;4194356;28;20711;-82
2022/05/05 09:16:25;;;;;;;17.37;9.27;;;16.50;99.90;;;;;;4185380;28;20218;-82
2022/05/05 09:18:30;;;;;;;12.23;8.33;;;16.70;99.90;;;;;;4190652;28;20313;-82
2022/05/05 09:20:36;;;;;;;14.57;8.30;;;16.60;99.90;;;;;;4183776;28;20191;-82
2022/05/05 09:22:39;;;;;;;13.70;8.40;;;16.70;99.90;;;;;;4193089;28;20210;-83
2022/05/05 09:24:44;;;;;;;12.57;8.07;;;16.80;99.90;;;;;;4201823;28;20607;-82
2022/05/05 09:26:46;;;;;;;19.33;8.80;;;16.90;99.90;;;;;;4198897;28;20213;-83
2022/05/05 09:28:49;;;;;;;16.80;9.23;;;16.90;99.90;;;;;;4199493;28;20729;-82
2022/05/05 09:30:52;;;;;;;16.00;8.53;;;16.90;99.90;;;;;;4188846;28;20207;-82
2022/05/05 09:32:57;;;;;;;16.53;7.87;;;17.00;99.90;;;;;;4196947;28;20241;-82
2022/05/05 09:35:02;;;;;;;16.67;9.37;;;16.90;99.90;;;;;;4198375;28;20271;-82
2022/05/05 09:37:18;;;;;;;14.10;8.63;;;16.90;99.90;;;;;;4188715;28;20212;-84
2022/05/05 09:39:20;;;;;;;19.93;8.80;;;17.00;99.90;;;;;;4198543;28;20212;-82
2022/05/05 09:41:23;;;;;;;14.23;8.73;;;17.10;99.90;;;;;;4182942;28;20672;-83
2022/05/05 09:43:29;;;;;;;13.17;8.83;;;17.10;99.90;;;;;;4188781;28;20218;-82
2022/05/05 09:45:32;;;;;;;12.70;8.10;;;17.20;99.90;;;;;;4196294;28;20225;-83
2022/05/05 09:47:34;;;;;;;14.43;8.63;;;17.20;99.90;;;;;;4191994;28;20214;-82
2022/05/05 09:49:36;;;;;;;14.77;8.23;;;17.20;99.90;;;;;;4198148;28;20314;-82
2022/05/05 09:51:41;;;;;;;14.83;8.10;;;17.30;99.90;;;;;;4196328;28;20213;-82
2022/05/05 09:58:26;;;;;;;13.93;7.90;;;17.60;99.90;;;;;;4186453;28;20266;-82
2022/05/05 10:00:44;;;;;;;19.07;8.17;;;17.70;99.90;;;;;;4194104;28;20213;-83
2022/05/05 10:05:09;;;;;;;17.70;7.77;;;17.90;99.90;;;;;;4187885;28;20257;-82
2022/05/05 10:07:13;;;;;;;12.73;7.13;;;17.90;99.20;;;;;;4185325;28;20211;-82
2022/05/05 10:09:17;;;;;;;12.70;7.40;;;18.40;98.10;;;;;;4190212;28;20605;-82
2022/05/05 10:11:19;;;;;;;14.07;8.07;;;18.40;96.80;;;;;;4195502;28;20238;-83
2022/05/05 10:13:23;;;;;;;14.20;7.40;;;18.10;96.60;;;;;;4196302;28;20310;-83
2022/05/05 10:15:25;;;;;;;12.67;7.70;;;18.20;96.20;;;;;;4192533;28;20215;-82
2022/05/05 10:17:28;;;;;;;14.60;7.00;;;18.20;95.20;;;;;;4191993;28;20207;-83
2022/05/05 10:19:30;;;;;;;12.87;7.63;;;18.30;94.60;;;;;;4195967;28;20669;-82
2022/05/05 10:21:45;;;;;;;10.10;7.03;;;18.40;94.20;;;;;;4188588;28;20211;-83
2022/05/05 10:23:59;;;;;;;12.17;7.13;;;18.50;93.80;;;;;;4189241;28;20228;-82
2022/05/05 10:26:02;;;;;;;16.40;7.27;;;18.60;94.00;;;;;;4194225;28;20207;-82
2022/05/05 10:28:18;;;;;;;12.40;7.43;;;18.60;92.00;;;;;;4181221;28;20208;-82
2022/05/05 10:30:34;;;;;;;16.87;7.87;;;18.60;84.60;;;;;;4188342;28;20256;-82
2022/05/05 10:32:36;;;;;;;14.97;7.80;;;18.50;77.50;;;;;;4192472;28;20199;-83
2022/05/05 10:34:38;;;;;;;15.73;8.00;;;18.90;76.20;;;;;;4200448;28;20263;-82
2022/05/05 10:36:40;;;;;;;11.73;7.20;;;18.50;71.60;;;;;;4197697;28;20207;-83
2022/05/05 10:38:43;;;;;;;13.50;7.67;;;18.50;70.40;;;;;;4196794;28;20207;-82
2022/05/05 10:40:46;;;;;;;14.67;7.60;;;18.60;73.10;;;;;;4196098;28;20215;-82
2022/05/05 10:42:52;;;;;;;13.93;8.30;;;18.60;75.00;;;;;;4186746;28;20580;-82
2022/05/05 10:45:13;;;;;;;17.13;8.50;;;18.60;74.90;;;;;;4191404;28;20769;-82
2022/05/05 10:50:03;;;;;;;14.10;6.43;;;18.80;76.60;;;;;;4054998;29;20270;-82
2022/05/05 10:52:32;;;;;;;12.80;7.90;;;19.00;77.60;;;;;;4145882;28;20208;-83
2022/05/05 10:54:34;;;;;;;14.87;7.33;;;19.20;77.80;;;;;;4193600;28;20961;-82
2022/05/05 10:56:39;;;;;;;12.17;7.83;;;19.30;79.90;;;;;;4185088;28;20210;-82